Time;durP1;ratioP1;P1;durP2;ratioP2;P2;SDS_P1;SDS_P2;PMS_P1;PMS_P2;Temp;Humidity;BMP_temperature;BMP_pressure;BME280_temperature;BME280_humidity;BME280_pressure;Samples;Min_cycle;Max_cycle;Signal;HPM_P1;HPM_P2
2023/12/19 00:00:56;;;;;;;22.65;15.80;;;;;;;;;;5079958;28;20046;-45
2023/12/19 00:03:21;;;;;;;26.50;15.60;;;;;;;;;;5085380;28;20040;-44
2023/12/19 00:05:47;;;;;;;29.20;21.70;;;;;;;;;;5077999;28;20024;-45
2023/12/19 00:08:12;;;;;;;29.58;17.45;;;;;;;;;;5077805;28;20036;-46
2023/12/19 00:10:38;;;;;;;38.20;19.83;;;;;;;;;;5081192;28;20466;-48
2023/12/19 00:13:03;;;;;;;38.17;19.55;;;;;;;;;;5076177;28;20044;-46
2023/12/19 00:15:29;;;;;;;30.95;17.70;;;;;;;;;;5076571;28;20073;-45
2023/12/19 00:17:54;;;;;;;23.48;14.75;;;;;;;;;;5076376;28;20029;-45
2023/12/19 00:20:20;;;;;;;18.48;11.50;;;;;;;;;;5076844;28;20028;-45
2023/12/19 00:22:46;;;;;;;20.65;11.20;;;;;;;;;;5075780;28;20521;-45
2023/12/19 00:25:11;;;;;;;18.40;12.98;;;;;;;;;;5074020;28;20051;-48
2023/12/19 00:27:37;;;;;;;21.25;14.07;;;;;;;;;;5071981;28;20028;-45
2023/12/19 00:30:02;;;;;;;21.30;12.57;;;;;;;;;;5077106;28;20029;-44
2023/12/19 00:32:28;;;;;;;19.70;11.95;;;;;;;;;;5076152;28;20039;-44
2023/12/19 00:34:53;;;;;;;16.40;10.93;;;;;;;;;;5077290;28;20043;-44
2023/12/19 00:37:19;;;;;;;20.10;11.52;;;;;;;;;;5076492;28;20124;-44
2023/12/19 00:39:44;;;;;;;16.77;10.10;;;;;;;;;;5076812;28;20040;-45
2023/12/19 00:42:10;;;;;;;17.50;10.98;;;;;;;;;;5075041;28;20588;-46
2023/12/19 00:44:36;;;;;;;20.70;11.35;;;;;;;;;;5073848;28;20047;-46
2023/12/19 00:47:03;;;;;;;16.58;10.90;;;;;;;;;;5089469;28;20736;-45
2023/12/19 00:49:28;;;;;;;22.80;11.38;;;;;;;;;;5074253;28;20055;-47
2023/12/19 00:51:54;;;;;;;17.88;10.95;;;;;;;;;;5075731;28;20021;-45
2023/12/19 00:54:19;;;;;;;13.10;8.15;;;;;;;;;;5076301;28;20044;-45
2023/12/19 00:56:44;;;;;;;11.68;7.72;;;;;;;;;;5077039;28;20063;-44
2023/12/19 00:59:10;;;;;;;11.40;7.53;;;;;;;;;;5070233;28;20052;-46
2023/12/19 01:01:35;;;;;;;12.98;8.35;;;;;;;;;;5077535;28;20020;-44
2023/12/19 01:04:01;;;;;;;14.88;9.90;;;;;;;;;;5073910;28;20516;-46
2023/12/19 01:06:26;;;;;;;14.90;8.18;;;;;;;;;;5081219;28;20028;-47
2023/12/19 01:08:53;;;;;;;17.27;11.30;;;;;;;;;;5076842;28;20036;-45
2023/12/19 01:11:18;;;;;;;17.88;13.65;;;;;;;;;;5075908;28;20024;-44
2023/12/19 01:13:43;;;;;;;23.60;17.08;;;;;;;;;;5074812;28;20040;-45
2023/12/19 01:16:09;;;;;;;27.73;16.33;;;;;;;;;;5081209;28;20036;-46
2023/12/19 01:18:34;;;;;;;23.98;16.65;;;;;;;;;;5081365;28;20041;-49
2023/12/19 01:21:00;;;;;;;19.17;16.52;;;;;;;;;;5077451;28;20020;-46
2023/12/19 01:23:25;;;;;;;17.30;14.65;;;;;;;;;;5074118;28;20036;-45
2023/12/19 01:25:51;;;;;;;18.70;12.55;;;;;;;;;;5076069;28;20067;-45
2023/12/19 01:28:16;;;;;;;11.15;8.32;;;;;;;;;;5075882;28;20448;-45
2023/12/19 01:30:42;;;;;;;12.75;10.23;;;;;;;;;;5074342;28;20016;-46
2023/12/19 01:33:11;;;;;;;11.57;8.43;;;;;;;;;;5075176;28;20128;-44
2023/12/19 01:35:37;;;;;;;8.13;6.88;;;;;;;;;;5076377;28;20048;-45
2023/12/19 01:38:03;;;;;;;14.43;8.82;;;;;;;;;;5072540;28;20036;-45
2023/12/19 01:40:31;;;;;;;12.02;7.53;;;;;;;;;;5074367;28;20123;-44
2023/12/19 01:42:56;;;;;;;8.32;7.35;;;;;;;;;;5080903;28;20506;-45
2023/12/19 01:45:23;;;;;;;13.32;8.82;;;;;;;;;;5080401;28;20102;-45
2023/12/19 01:47:49;;;;;;;10.93;9.38;;;;;;;;;;5075984;28;20028;-44
2023/12/19 01:50:16;;;;;;;10.00;6.25;;;;;;;;;;5077823;28;20116;-45
2023/12/19 01:52:44;;;;;;;12.20;7.75;;;;;;;;;;5075584;28;20074;-48
2023/12/19 01:55:11;;;;;;;11.82;7.80;;;;;;;;;;5075789;28;20039;-45
2023/12/19 01:57:38;;;;;;;8.82;6.90;;;;;;;;;;5074109;28;20051;-46
2023/12/19 02:00:04;;;;;;;8.60;6.80;;;;;;;;;;5074984;28;20128;-46
2023/12/19 02:02:29;;;;;;;8.57;6.43;;;;;;;;;;5080185;28;20060;-46
2023/12/19 02:04:57;;;;;;;11.90;7.28;;;;;;;;;;5070950;28;20060;-46
2023/12/19 02:07:22;;;;;;;9.90;6.30;;;;;;;;;;5076534;28;20039;-46
2023/12/19 02:09:47;;;;;;;9.43;6.95;;;;;;;;;;5072512;28;20406;-47
2023/12/19 02:12:13;;;;;;;8.48;6.55;;;;;;;;;;5076535;28;20037;-44
2023/12/19 02:14:42;;;;;;;9.07;6.25;;;;;;;;;;5075311;28;20033;-46
2023/12/19 02:17:07;;;;;;;10.73;7.68;;;;;;;;;;5075453;28;20031;-44
2023/12/19 02:19:32;;;;;;;10.00;7.07;;;;;;;;;;5074695;28;20040;-45
2023/12/19 02:21:58;;;;;;;8.88;7.07;;;;;;;;;;5079557;28;20497;-47
2023/12/19 02:24:24;;;;;;;10.00;7.43;;;;;;;;;;5075792;28;20141;-44
2023/12/19 02:26:51;;;;;;;7.95;6.78;;;;;;;;;;5079740;28;20039;-46
2023/12/19 02:29:16;;;;;;;10.48;6.57;;;;;;;;;;5074826;28;20060;-47
2023/12/19 02:31:44;;;;;;;9.55;6.28;;;;;;;;;;5075656;28;20024;-46
2023/12/19 02:34:09;;;;;;;8.82;5.90;;;;;;;;;;5072048;28;20044;-45
2023/12/19 02:36:36;;;;;;;8.25;5.75;;;;;;;;;;5073180;28;20093;-44
2023/12/19 02:39:01;;;;;;;7.18;5.30;;;;;;;;;;5075377;28;20040;-45
2023/12/19 02:41:27;;;;;;;10.23;5.97;;;;;;;;;;5072505;28;20112;-45
2023/12/19 02:43:52;;;;;;;7.38;5.72;;;;;;;;;;5075124;28;20174;-44
2023/12/19 02:46:18;;;;;;;9.80;6.22;;;;;;;;;;5075863;28;20033;-46
2023/12/19 02:48:43;;;;;;;6.78;5.28;;;;;;;;;;5071712;28;20032;-45
2023/12/19 02:51:08;;;;;;;7.78;5.72;;;;;;;;;;5073806;28;20390;-45
2023/12/19 02:53:34;;;;;;;6.75;4.53;;;;;;;;;;5072891;28;20429;-46
2023/12/19 02:55:59;;;;;;;9.50;6.35;;;;;;;;;;5075627;28;20098;-44
2023/12/19 02:58:25;;;;;;;8.82;5.97;;;;;;;;;;5081899;28;20110;-44
2023/12/19 03:00:50;;;;;;;8.70;6.63;;;;;;;;;;5072151;28;20103;-45
2023/12/19 03:03:15;;;;;;;9.15;6.43;;;;;;;;;;5073508;28;20128;-44
2023/12/19 03:05:41;;;;;;;8.63;6.43;;;;;;;;;;5066202;28;20032;-44
2023/12/19 03:08:06;;;;;;;7.20;6.47;;;;;;;;;;5075160;28;20141;-47
2023/12/19 03:10:31;;;;;;;11.10;7.22;;;;;;;;;;5065869;28;20033;-44
2023/12/19 03:12:57;;;;;;;7.18;5.65;;;;;;;;;;5069515;28;20099;-45
2023/12/19 03:15:24;;;;;;;9.70;6.32;;;;;;;;;;5090794;28;20107;-46
2023/12/19 03:17:49;;;;;;;8.63;6.35;;;;;;;;;;5072816;28;20508;-44
2023/12/19 03:20:15;;;;;;;9.50;6.47;;;;;;;;;;5078552;28;20027;-45
2023/12/19 03:22:40;;;;;;;9.55;6.40;;;;;;;;;;5076719;28;20060;-46
2023/12/19 03:25:06;;;;;;;8.05;6.38;;;;;;;;;;5077119;28;20027;-45
2023/12/19 03:27:31;;;;;;;9.23;6.45;;;;;;;;;;5077201;28;20063;-46
2023/12/19 03:29:57;;;;;;;10.15;6.15;;;;;;;;;;5077983;28;20032;-46
2023/12/19 03:32:22;;;;;;;9.00;6.10;;;;;;;;;;5078109;28;20024;-45
2023/12/19 03:34:48;;;;;;;9.88;6.15;;;;;;;;;;5078536;28;20048;-45
2023/12/19 03:37:13;;;;;;;5.10;4.60;;;;;;;;;;5079633;28;20024;-46
2023/12/19 03:39:38;;;;;;;7.00;4.70;;;;;;;;;;5086326;28;20747;-44
2023/12/19 03:42:04;;;;;;;7.60;4.78;;;;;;;;;;5076690;28;20606;-45
2023/12/19 03:44:29;;;;;;;8.15;5.43;;;;;;;;;;5076870;28;20040;-46
2023/12/19 03:46:55;;;;;;;7.45;5.35;;;;;;;;;;5078578;28;20032;-45
2023/12/19 03:49:20;;;;;;;5.93;4.40;;;;;;;;;;5088188;28;20032;-47
2023/12/19 03:51:47;;;;;;;6.97;4.85;;;;;;;;;;5069546;28;20035;-46
2023/12/19 03:54:13;;;;;;;7.55;4.50;;;;;;;;;;5077802;28;20559;-46
2023/12/19 03:56:38;;;;;;;5.63;4.80;;;;;;;;;;5077203;28;20126;-46
2023/12/19 03:59:03;;;;;;;7.15;4.70;;;;;;;;;;5078027;28;20037;-46
2023/12/19 04:01:30;;;;;;;7.13;4.60;;;;;;;;;;5077470;28;20060;-45
2023/12/19 04:03:57;;;;;;;8.48;5.65;;;;;;;;;;5077790;28;20036;-46
2023/12/19 04:06:23;;;;;;;8.88;4.97;;;;;;;;;;5076964;28;20040;-46
2023/12/19 04:08:48;;;;;;;7.65;5.18;;;;;;;;;;5078644;28;20028;-43
2023/12/19 04:11:15;;;;;;;7.80;5.32;;;;;;;;;;5076612;28;20036;-45
2023/12/19 04:13:41;;;;;;;8.23;5.18;;;;;;;;;;5076024;28;20041;-45
2023/12/19 04:16:07;;;;;;;6.95;4.40;;;;;;;;;;5077043;28;20017;-46
2023/12/19 04:18:33;;;;;;;6.97;5.93;;;;;;;;;;5078537;28;20690;-44
2023/12/19 04:20:58;;;;;;;7.30;5.03;;;;;;;;;;5076034;28;20056;-44
2023/12/19 04:23:24;;;;;;;6.82;4.45;;;;;;;;;;5077133;28;20503;-45
2023/12/19 04:25:49;;;;;;;5.25;4.00;;;;;;;;;;5076636;28;20020;-45
2023/12/19 04:28:14;;;;;;;6.00;4.28;;;;;;;;;;5077768;28;20036;-45
2023/12/19 04:30:41;;;;;;;9.20;4.93;;;;;;;;;;5074555;28;20031;-46
2023/12/19 04:33:06;;;;;;;7.57;4.80;;;;;;;;;;5075270;28;20562;-44
2023/12/19 04:35:32;;;;;;;6.40;4.20;;;;;;;;;;5081572;28;20071;-44
2023/12/19 04:37:57;;;;;;;6.63;3.95;;;;;;;;;;5085988;28;20020;-47
2023/12/19 04:40:22;;;;;;;7.90;5.18;;;;;;;;;;5083216;28;20033;-45
2023/12/19 04:42:48;;;;;;;5.38;4.45;;;;;;;;;;5085140;28;20390;-45
2023/12/19 04:45:13;;;;;;;6.85;4.97;;;;;;;;;;5083242;28;20020;-45
2023/12/19 04:47:39;;;;;;;6.95;4.72;;;;;;;;;;5078016;28;20032;-47
2023/12/19 04:50:05;;;;;;;7.22;4.78;;;;;;;;;;5075313;28;20048;-44
2023/12/19 04:52:31;;;;;;;5.45;4.30;;;;;;;;;;5077158;28;20047;-45
2023/12/19 04:54:56;;;;;;;5.43;3.70;;;;;;;;;;5077048;28;20040;-44
2023/12/19 04:57:21;;;;;;;7.38;4.82;;;;;;;;;;5076653;28;20036;-45
2023/12/19 04:59:47;;;;;;;4.35;3.78;;;;;;;;;;5077147;28;20506;-46
2023/12/19 05:02:12;;;;;;;6.18;4.35;;;;;;;;;;5075273;28;20108;-45
2023/12/19 05:04:38;;;;;;;5.72;4.22;;;;;;;;;;5076972;28;20110;-45
2023/12/19 05:07:03;;;;;;;5.57;3.72;;;;;;;;;;5073509;28;20107;-46
2023/12/19 05:09:28;;;;;;;6.50;3.38;;;;;;;;;;5078252;28;20040;-45
2023/12/19 05:11:54;;;;;;;4.55;3.33;;;;;;;;;;5073859;28;20074;-45
2023/12/19 05:14:19;;;;;;;5.38;3.25;;;;;;;;;;5072240;28;20037;-44
2023/12/19 05:16:44;;;;;;;5.07;3.55;;;;;;;;;;5073281;28;20107;-44
2023/12/19 05:19:10;;;;;;;4.90;3.75;;;;;;;;;;5074613;28;20033;-44
2023/12/19 05:21:39;;;;;;;5.00;4.25;;;;;;;;;;5071891;28;20398;-44
2023/12/19 05:24:05;;;;;;;5.55;3.95;;;;;;;;;;5076160;28;20375;-45
2023/12/19 05:26:30;;;;;;;6.57;3.47;;;;;;;;;;5076591;28;20115;-43
2023/12/19 05:28:56;;;;;;;5.97;4.35;;;;;;;;;;5071153;28;20529;-44
2023/12/19 05:31:22;;;;;;;6.07;4.05;;;;;;;;;;5073667;28;20040;-45
2023/12/19 05:33:47;;;;;;;6.00;3.75;;;;;;;;;;5072353;28;20070;-45
2023/12/19 05:36:13;;;;;;;7.03;4.32;;;;;;;;;;5071342;28;20025;-45
2023/12/19 05:38:39;;;;;;;8.57;6.03;;;;;;;;;;5072311;28;20025;-47
2023/12/19 05:41:05;;;;;;;7.88;5.55;;;;;;;;;;5071700;28;20067;-48
2023/12/19 05:43:30;;;;;;;10.05;6.00;;;;;;;;;;5076000;28;20097;-47
2023/12/19 05:45:56;;;;;;;11.13;6.82;;;;;;;;;;5080273;28;20036;-47
2023/12/19 05:48:22;;;;;;;8.88;6.45;;;;;;;;;;5073090;28;20037;-45
2023/12/19 05:50:48;;;;;;;10.48;6.03;;;;;;;;;;5073682;28;20020;-44
2023/12/19 05:53:14;;;;;;;7.35;4.60;;;;;;;;;;5076353;28;20042;-48
2023/12/19 05:55:39;;;;;;;7.53;4.53;;;;;;;;;;5076564;28;20070;-44
2023/12/19 05:58:04;;;;;;;5.78;4.38;;;;;;;;;;5076530;28;20028;-44
2023/12/19 06:00:30;;;;;;;7.82;5.55;;;;;;;;;;5078500;28;20051;-45
2023/12/19 06:02:55;;;;;;;5.40;3.17;;;;;;;;;;5083052;28;20027;-45
2023/12/19 06:05:21;;;;;;;4.22;3.92;;;;;;;;;;5076134;28;20107;-44
2023/12/19 06:07:46;;;;;;;5.97;2.92;;;;;;;;;;5073518;28;20474;-45
2023/12/19 06:10:13;;;;;;;10.27;6.53;;;;;;;;;;5090669;28;20382;-47
2023/12/19 06:12:39;;;;;;;6.70;6.03;;;;;;;;;;5073687;28;20017;-45
2023/12/19 06:15:11;;;;;;;6.20;3.80;;;;;;;;;;5073849;28;20044;-44
2023/12/19 06:17:41;;;;;;;5.93;3.38;;;;;;;;;;5070666;28;20393;-44
2023/12/19 06:20:08;;;;;;;8.57;5.18;;;;;;;;;;5080060;28;20091;-45
2023/12/19 06:22:33;;;;;;;6.70;3.75;;;;;;;;;;5070758;28;20039;-45
2023/12/19 06:24:58;;;;;;;6.00;4.57;;;;;;;;;;5073672;28;20032;-45
2023/12/19 06:27:27;;;;;;;5.35;3.63;;;;;;;;;;5069640;28;20057;-45
2023/12/19 06:29:52;;;;;;;4.40;3.25;;;;;;;;;;5063464;28;20127;-45
2023/12/19 06:32:18;;;;;;;6.85;3.80;;;;;;;;;;5062215;28;20099;-44
2023/12/19 06:34:43;;;;;;;4.13;2.97;;;;;;;;;;5065864;28;20041;-45
2023/12/19 06:37:08;;;;;;;5.97;4.55;;;;;;;;;;5070636;28;20039;-47
2023/12/19 06:39:36;;;;;;;6.53;3.92;;;;;;;;;;5068416;28;20135;-44
2023/12/19 06:42:01;;;;;;;5.88;3.97;;;;;;;;;;5067439;28;20405;-46
2023/12/19 06:44:27;;;;;;;6.63;3.90;;;;;;;;;;5061694;28;20037;-44
2023/12/19 06:46:52;;;;;;;10.57;6.05;;;;;;;;;;5079985;28;20032;-46
2023/12/19 06:49:18;;;;;;;7.05;3.85;;;;;;;;;;5072991;28;20048;-45
2023/12/19 06:51:44;;;;;;;8.15;4.43;;;;;;;;;;5074444;28;20028;-44
2023/12/19 06:54:09;;;;;;;7.28;5.13;;;;;;;;;;5071858;28;20041;-46
2023/12/19 06:56:34;;;;;;;9.13;5.38;;;;;;;;;;5073961;28;20386;-44
2023/12/19 06:59:01;;;;;;;7.13;4.93;;;;;;;;;;5071692;28;20037;-45
2023/12/19 07:01:27;;;;;;;10.13;5.70;;;;;;;;;;5071393;28;20039;-43
2023/12/19 07:03:52;;;;;;;8.40;5.45;;;;;;;;;;5074274;28;20037;-45
2023/12/19 07:06:18;;;;;;;6.70;5.63;;;;;;;;;;5074464;28;20600;-47
2023/12/19 07:08:43;;;;;;;7.40;5.20;;;;;;;;;;5072990;28;20059;-46
2023/12/19 07:11:09;;;;;;;8.80;5.30;;;;;;;;;;5072063;28;20036;-45
2023/12/19 07:13:34;;;;;;;8.95;6.20;;;;;;;;;;5072193;28;20375;-45
2023/12/19 07:16:01;;;;;;;7.47;5.30;;;;;;;;;;5072579;28;20064;-48
2023/12/19 07:18:28;;;;;;;9.75;5.57;;;;;;;;;;5074206;28;20040;-45
2023/12/19 07:20:53;;;;;;;9.95;5.30;;;;;;;;;;5068833;28;20237;-45
2023/12/19 07:23:18;;;;;;;8.63;4.50;;;;;;;;;;5067216;28;20562;-45
2023/12/19 07:25:44;;;;;;;6.97;4.60;;;;;;;;;;5074215;28;20020;-48
2023/12/19 07:28:09;;;;;;;7.68;4.43;;;;;;;;;;5075835;28;20029;-48
2023/12/19 07:30:35;;;;;;;7.45;4.95;;;;;;;;;;5072890;28;20025;-44
2023/12/19 07:33:01;;;;;;;7.05;4.97;;;;;;;;;;5068270;28;20471;-45
2023/12/19 07:35:26;;;;;;;6.53;4.35;;;;;;;;;;5074629;28;20039;-45
2023/12/19 07:37:51;;;;;;;5.80;3.95;;;;;;;;;;5073954;28;20025;-44
2023/12/19 07:40:17;;;;;;;7.63;4.63;;;;;;;;;;5072040;28;20494;-46
2023/12/19 07:42:44;;;;;;;7.63;4.30;;;;;;;;;;5074673;28;20050;-45
2023/12/19 07:45:10;;;;;;;6.28;4.10;;;;;;;;;;5074624;28;20085;-45
2023/12/19 07:47:35;;;;;;;8.93;5.15;;;;;;;;;;5074498;28;20036;-44
2023/12/19 07:50:01;;;;;;;6.72;6.00;;;;;;;;;;5080471;28;20029;-45
2023/12/19 07:52:28;;;;;;;12.32;6.85;;;;;;;;;;5056114;28;20398;-46
2023/12/19 07:54:54;;;;;;;9.82;6.78;;;;;;;;;;5059584;28;21288;-45
2023/12/19 07:57:19;;;;;;;12.88;7.75;;;;;;;;;;5072689;28;20037;-44
2023/12/19 07:59:45;;;;;;;10.27;7.85;;;;;;;;;;5082977;28;20513;-45
2023/12/19 08:02:11;;;;;;;13.95;9.00;;;;;;;;;;5063884;28;20399;-46
2023/12/19 08:04:36;;;;;;;13.82;8.38;;;;;;;;;;5076895;28;20472;-44
2023/12/19 08:07:03;;;;;;;15.70;8.93;;;;;;;;;;5075608;28;20054;-46
2023/12/19 08:09:29;;;;;;;12.77;8.32;;;;;;;;;;5067749;28;20036;-44
2023/12/19 08:11:56;;;;;;;13.68;9.15;;;;;;;;;;5078547;28;20107;-46
2023/12/19 08:14:25;;;;;;;12.90;8.95;;;;;;;;;;5079793;28;20048;-44
2023/12/19 08:16:50;;;;;;;10.80;8.07;;;;;;;;;;5076252;28;20029;-47
2023/12/19 08:19:18;;;;;;;11.30;8.10;;;;;;;;;;5076380;28;20047;-48
2023/12/19 08:21:48;;;;;;;10.77;8.45;;;;;;;;;;5075729;28;20024;-46
2023/12/19 08:24:13;;;;;;;12.10;8.40;;;;;;;;;;5076276;28;20032;-48
2023/12/19 08:26:39;;;;;;;10.27;8.00;;;;;;;;;;5078173;28;20036;-47
2023/12/19 08:29:04;;;;;;;8.73;6.75;;;;;;;;;;5077777;28;20441;-47
2023/12/19 08:31:30;;;;;;;12.57;6.88;;;;;;;;;;5077223;28;20035;-45
2023/12/19 08:33:55;;;;;;;9.27;7.00;;;;;;;;;;5076026;28;20071;-45
2023/12/19 08:36:21;;;;;;;6.68;5.35;;;;;;;;;;5075039;28;20374;-46
2023/12/19 08:38:46;;;;;;;7.97;5.78;;;;;;;;;;5077376;28;20490;-46
2023/12/19 08:41:12;;;;;;;7.50;4.90;;;;;;;;;;5076879;28;20025;-44
2023/12/19 08:43:37;;;;;;;7.90;5.80;;;;;;;;;;5074700;28;20067;-45
2023/12/19 08:46:03;;;;;;;8.82;6.15;;;;;;;;;;5075378;28;20035;-47
2023/12/19 08:48:28;;;;;;;8.00;6.78;;;;;;;;;;5076607;28;20037;-48
2023/12/19 08:50:53;;;;;;;10.38;6.32;;;;;;;;;;5075791;28;20025;-46
2023/12/19 08:53:19;;;;;;;7.85;6.25;;;;;;;;;;5076173;28;20040;-46
2023/12/19 08:55:47;;;;;;;13.15;8.02;;;;;;;;;;5076848;28;20418;-47
2023/12/19 08:58:12;;;;;;;10.30;7.32;;;;;;;;;;5074884;28;20135;-48
2023/12/19 09:00:38;;;;;;;11.35;7.45;;;;;;;;;;5088105;28;20055;-47
2023/12/19 09:03:05;;;;;;;11.07;7.18;;;;;;;;;;5074693;28;20043;-47
2023/12/19 09:05:30;;;;;;;10.30;8.73;;;;;;;;;;5077444;28;20569;-45
2023/12/19 09:07:56;;;;;;;9.13;6.53;;;;;;;;;;5075277;28;20064;-45
2023/12/19 09:10:21;;;;;;;10.65;7.93;;;;;;;;;;5076145;28;20029;-46
2023/12/19 09:12:47;;;;;;;11.90;8.05;;;;;;;;;;5090042;28;20081;-46
2023/12/19 09:15:12;;;;;;;17.55;9.07;;;;;;;;;;5075862;28;20024;-47
2023/12/19 09:17:38;;;;;;;19.88;11.68;;;;;;;;;;5065313;28;20039;-46
2023/12/19 09:20:05;;;;;;;17.88;10.75;;;;;;;;;;5076390;28;20043;-47
2023/12/19 09:22:31;;;;;;;18.67;12.45;;;;;;;;;;5075226;28;20020;-47
2023/12/19 09:24:57;;;;;;;15.75;11.30;;;;;;;;;;5074164;28;20068;-48
2023/12/19 09:27:22;;;;;;;17.33;11.23;;;;;;;;;;5074516;28;20027;-44
2023/12/19 09:29:48;;;;;;;15.88;12.43;;;;;;;;;;5075055;28;20056;-45
2023/12/19 09:32:15;;;;;;;16.00;12.15;;;;;;;;;;5076365;28;20016;-44
2023/12/19 09:34:40;;;;;;;17.10;11.40;;;;;;;;;;5075568;28;20040;-49
2023/12/19 09:37:06;;;;;;;16.92;10.45;;;;;;;;;;5076692;28;20032;-48
2023/12/19 09:39:32;;;;;;;17.15;11.07;;;;;;;;;;5074068;28;20051;-45
2023/12/19 09:41:58;;;;;;;14.73;11.50;;;;;;;;;;5075577;28;20037;-46
2023/12/19 09:44:25;;;;;;;19.92;13.25;;;;;;;;;;5080730;28;20066;-44
2023/12/19 09:46:51;;;;;;;17.67;12.10;;;;;;;;;;5079602;28;20028;-45
2023/12/19 09:49:21;;;;;;;18.33;12.00;;;;;;;;;;5074033;28;20496;-46
2023/12/19 09:51:51;;;;;;;16.05;12.43;;;;;;;;;;5073540;28;20074;-48
2023/12/19 09:54:19;;;;;;;16.02;11.70;;;;;;;;;;5075354;28;20093;-46
2023/12/19 09:56:45;;;;;;;16.08;11.95;;;;;;;;;;5090717;28;20081;-45
2023/12/19 09:59:11;;;;;;;13.80;10.85;;;;;;;;;;5075853;28;20055;-44
2023/12/19 10:01:38;;;;;;;19.73;12.05;;;;;;;;;;5075762;28;20024;-45
2023/12/19 10:04:08;;;;;;;16.48;11.93;;;;;;;;;;5074131;28;20497;-46
2023/12/19 10:06:34;;;;;;;14.27;10.02;;;;;;;;;;5074923;28;20036;-46
2023/12/19 10:09:00;;;;;;;16.13;10.73;;;;;;;;;;5073620;28;20044;-46
2023/12/19 10:11:27;;;;;;;15.07;10.90;;;;;;;;;;5072892;28;20030;-44
2023/12/19 10:14:09;;;;;;;15.35;10.70;;;;;;;;;;5075664;28;20440;-45
2023/12/19 10:16:40;;;;;;;17.05;10.68;;;;;;;;;;5076158;28;20082;-46
2023/12/19 10:19:11;;;;;;;18.88;12.30;;;;;;;;;;5073824;28;20038;-47
2023/12/19 10:21:36;;;;;;;16.77;12.52;;;;;;;;;;5074775;28;20034;-45
2023/12/19 10:24:11;;;;;;;21.58;12.60;;;;;;;;;;5074367;28;20049;-45
2023/12/19 10:26:37;;;;;;;18.65;11.23;;;;;;;;;;5073502;28;20107;-45
2023/12/19 10:29:02;;;;;;;20.02;12.20;;;;;;;;;;5072459;28;20064;-44
2023/12/19 10:31:27;;;;;;;17.90;14.77;;;;;;;;;;5074818;28;20039;-44
2023/12/19 10:33:56;;;;;;;15.45;11.52;;;;;;;;;;5075331;28;20062;-44
2023/12/19 10:36:28;;;;;;;18.75;11.90;;;;;;;;;;5075136;28;20047;-46
2023/12/19 10:38:58;;;;;;;18.83;13.20;;;;;;;;;;5082557;28;20040;-46
2023/12/19 10:41:28;;;;;;;18.48;14.75;;;;;;;;;;5084700;28;20032;-44
2023/12/19 10:43:57;;;;;;;20.83;15.70;;;;;;;;;;5077030;28;20044;-47
2023/12/19 10:46:27;;;;;;;20.77;16.15;;;;;;;;;;5074803;28;20100;-47
2023/12/19 10:48:54;;;;;;;19.27;16.35;;;;;;;;;;5072917;28;20100;-45
2023/12/19 10:51:30;;;;;;;20.45;16.13;;;;;;;;;;5074572;28;20103;-45
2023/12/19 10:54:05;;;;;;;22.60;16.65;;;;;;;;;;5073626;28;20043;-49
2023/12/19 10:56:34;;;;;;;18.63;14.75;;;;;;;;;;5082113;28;20024;-44
2023/12/19 10:59:04;;;;;;;18.80;15.32;;;;;;;;;;5063905;28;20048;-47
2023/12/19 11:01:37;;;;;;;18.42;15.98;;;;;;;;;;5069160;28;20028;-44
2023/12/19 11:04:09;;;;;;;19.52;15.88;;;;;;;;;;5074232;28;20040;-46
2023/12/19 11:06:40;;;;;;;18.02;15.32;;;;;;;;;;5078447;28;20023;-46
2023/12/19 11:09:10;;;;;;;22.73;14.90;;;;;;;;;;5084606;28;20056;-48
2023/12/19 11:11:37;;;;;;;17.73;14.25;;;;;;;;;;5073077;28;20029;-47
2023/12/19 11:14:05;;;;;;;21.27;14.77;;;;;;;;;;5072011;28;21703;-50
2023/12/19 11:16:59;;;;;;;20.08;15.70;;;;;;;;;;5072529;28;20027;-48
2023/12/19 11:19:30;;;;;;;18.48;15.55;;;;;;;;;;5070022;28;20086;-49
2023/12/19 11:22:20;;;;;;;18.83;13.30;;;;;;;;;;5071287;28;20024;-46
2023/12/19 11:25:01;;;;;;;18.70;14.63;;;;;;;;;;5073749;28;20566;-45
2023/12/19 11:27:35;;;;;;;16.55;14.13;;;;;;;;;;5075045;28;20063;-50
2023/12/19 11:30:00;;;;;;;15.93;14.05;;;;;;;;;;5074218;28;20039;-48
2023/12/19 11:32:29;;;;;;;17.45;14.10;;;;;;;;;;5074925;28;20024;-47
2023/12/19 11:35:14;;;;;;;22.85;17.20;;;;;;;;;;5072032;28;20032;-46
2023/12/19 11:37:44;;;;;;;19.88;15.43;;;;;;;;;;5081863;28;20115;-42
2023/12/19 11:40:18;;;;;;;20.08;16.20;;;;;;;;;;5087472;28;20024;-46
2023/12/19 11:42:45;;;;;;;17.08;14.07;;;;;;;;;;5079608;28;20024;-48
2023/12/19 11:45:16;;;;;;;23.00;16.45;;;;;;;;;;5088414;28;20111;-46
2023/12/19 11:47:42;;;;;;;21.60;16.33;;;;;;;;;;5078492;28;20123;-44
2023/12/19 11:50:07;;;;;;;20.23;18.05;;;;;;;;;;5075636;28;20111;-50
2023/12/19 11:52:37;;;;;;;31.95;17.98;;;;;;;;;;5077394;28;20048;-47
2023/12/19 11:55:06;;;;;;;18.50;16.02;;;;;;;;;;5079939;28;20033;-49
2023/12/19 11:57:33;;;;;;;22.23;19.25;;;;;;;;;;5077351;28;20036;-47
2023/12/19 12:00:00;;;;;;;23.17;19.50;;;;;;;;;;5076501;28;20041;-46
2023/12/19 12:02:32;;;;;;;22.00;17.38;;;;;;;;;;5076443;28;20024;-47
2023/12/19 12:05:15;;;;;;;24.52;17.55;;;;;;;;;;5073059;28;20037;-45
2023/12/19 12:07:48;;;;;;;20.90;18.85;;;;;;;;;;5076598;28;20032;-49
2023/12/19 12:10:20;;;;;;;21.10;17.50;;;;;;;;;;5075990;28;20088;-48
2023/12/19 12:12:46;;;;;;;20.38;16.33;;;;;;;;;;5080658;28;20056;-49
2023/12/19 12:15:13;;;;;;;21.85;16.70;;;;;;;;;;5076634;28;20028;-45
2023/12/19 12:17:39;;;;;;;19.23;16.50;;;;;;;;;;5076661;28;20618;-46
2023/12/19 12:20:06;;;;;;;19.25;16.20;;;;;;;;;;5075884;28;20139;-45
2023/12/19 12:22:32;;;;;;;18.58;15.55;;;;;;;;;;5079601;28;20032;-53
2023/12/19 12:24:58;;;;;;;17.50;15.68;;;;;;;;;;5077697;28;20098;-50
2023/12/19 12:27:24;;;;;;;19.15;16.23;;;;;;;;;;5076486;28;20028;-49
2023/12/19 12:29:51;;;;;;;18.25;16.30;;;;;;;;;;5075896;28;20082;-45
2023/12/19 12:32:17;;;;;;;17.30;15.48;;;;;;;;;;5077063;28;20024;-48
2023/12/19 12:34:44;;;;;;;19.58;16.52;;;;;;;;;;5080515;28;20471;-49
2023/12/19 12:37:10;;;;;;;18.85;16.85;;;;;;;;;;5077490;28;20151;-47
2023/12/19 12:39:35;;;;;;;20.08;15.52;;;;;;;;;;5075315;28;20048;-45
2023/12/19 12:42:02;;;;;;;18.60;16.83;;;;;;;;;;5078016;28;20036;-45
2023/12/19 12:44:28;;;;;;;18.35;14.85;;;;;;;;;;5081504;28;20036;-45
2023/12/19 12:46:53;;;;;;;17.98;15.10;;;;;;;;;;5077653;28;20021;-48
2023/12/19 12:49:19;;;;;;;16.20;13.30;;;;;;;;;;5075213;28;20036;-46
2023/12/19 12:51:46;;;;;;;17.42;15.27;;;;;;;;;;5074705;28;20036;-47
2023/12/19 12:54:16;;;;;;;17.83;15.75;;;;;;;;;;5077455;28;20048;-46
2023/12/19 12:56:42;;;;;;;17.05;15.00;;;;;;;;;;5070408;28;20533;-48
2023/12/19 12:59:12;;;;;;;19.38;15.95;;;;;;;;;;5075527;28;20086;-48
2023/12/19 13:01:39;;;;;;;17.70;14.05;;;;;;;;;;5074309;28;20025;-48
2023/12/19 13:04:07;;;;;;;15.55;13.13;;;;;;;;;;5076988;28;20056;-50
2023/12/19 13:06:34;;;;;;;18.15;16.08;;;;;;;;;;5073561;28;20032;-46
2023/12/19 13:08:59;;;;;;;16.90;14.20;;;;;;;;;;5075239;28;20046;-50
2023/12/19 13:11:25;;;;;;;18.65;14.75;;;;;;;;;;5069315;28;20058;-50
2023/12/19 13:13:50;;;;;;;15.00;13.32;;;;;;;;;;5076940;28;20486;-49
2023/12/19 13:16:16;;;;;;;16.95;12.75;;;;;;;;;;5076564;28;20025;-48
2023/12/19 13:18:44;;;;;;;17.52;13.23;;;;;;;;;;5074181;28;20060;-49
2023/12/19 13:21:11;;;;;;;15.00;13.40;;;;;;;;;;5072778;28;20035;-50
2023/12/19 13:23:36;;;;;;;16.83;14.18;;;;;;;;;;5074505;28;20044;-45
2023/12/19 13:26:02;;;;;;;17.23;13.40;;;;;;;;;;5076585;28;20857;-49
2023/12/19 13:28:27;;;;;;;17.05;12.65;;;;;;;;;;5075827;28;20048;-49
2023/12/19 13:30:54;;;;;;;14.63;11.77;;;;;;;;;;5078221;28;20078;-48
2023/12/19 13:33:21;;;;;;;17.65;13.27;;;;;;;;;;5074777;28;20041;-45
2023/12/19 13:35:47;;;;;;;16.02;10.73;;;;;;;;;;5076833;28;20036;-47
2023/12/19 13:38:13;;;;;;;13.77;10.48;;;;;;;;;;5078189;28;20066;-46
2023/12/19 13:40:38;;;;;;;15.13;12.18;;;;;;;;;;5079432;28;20028;-47
2023/12/19 13:43:04;;;;;;;12.43;11.02;;;;;;;;;;5082928;28;20063;-46
2023/12/19 13:45:32;;;;;;;12.35;8.80;;;;;;;;;;5081136;28;20020;-46
2023/12/19 13:48:01;;;;;;;12.25;10.40;;;;;;;;;;5085579;28;20039;-47
2023/12/19 13:50:27;;;;;;;13.27;9.10;;;;;;;;;;5073409;28;20032;-49
2023/12/19 13:52:52;;;;;;;14.95;9.60;;;;;;;;;;5076729;28;20040;-45
2023/12/19 13:55:18;;;;;;;10.05;8.55;;;;;;;;;;5077009;28;20517;-46
2023/12/19 13:57:43;;;;;;;11.20;8.35;;;;;;;;;;5079657;28;20036;-48
2023/12/19 14:00:14;;;;;;;12.48;9.70;;;;;;;;;;5073520;28;20032;-48
2023/12/19 14:02:42;;;;;;;11.80;8.00;;;;;;;;;;5084817;28;20037;-48
2023/12/19 14:05:08;;;;;;;10.30;7.60;;;;;;;;;;5075783;28;20059;-49
2023/12/19 14:07:34;;;;;;;11.65;7.78;;;;;;;;;;5074753;28;20478;-48
2023/12/19 14:10:09;;;;;;;12.23;6.88;;;;;;;;;;5071513;28;20040;-48
2023/12/19 14:12:37;;;;;;;12.23;8.82;;;;;;;;;;5078865;28;20021;-50
2023/12/19 14:15:04;;;;;;;8.90;6.90;;;;;;;;;;5067363;28;20064;-48
2023/12/19 14:17:29;;;;;;;7.50;6.07;;;;;;;;;;5075604;28;20029;-48
2023/12/19 14:19:55;;;;;;;9.82;7.55;;;;;;;;;;5074505;28;20039;-46
2023/12/19 14:22:20;;;;;;;9.68;7.55;;;;;;;;;;5074817;28;20039;-46
2023/12/19 14:24:46;;;;;;;7.65;6.85;;;;;;;;;;5074116;28;20064;-49
2023/12/19 14:27:11;;;;;;;9.10;7.03;;;;;;;;;;5071015;28;20043;-47